• Join FlightAware (Why Join?)
  • Login
  • US Flag 
09:51AM EDT


 

Airport Tracker/Info


-or-


 

Live Flight TrackerFlight Track Log ✈ LYM752 ✈ 16-Oct-2013 ✈ KGJT - KDEN

Flight Track Log - Related Links

Times and Time Zones

All times are in EDT time to prevent confusion due to time zone crossing. See the LYM752 flight status page for this flight to view local times or setup timezone preferences in your user account.

Time Position Orientation Groundspeed Altitude Reporting Facility
EDT Latitude Longitude Course Direction KTS MPH feet Rate Location/Type
11:51AM 39.0833 -108.5000 159° South 126 145 6,600  Level Denver TRACON
11:52AM 39.0500 -108.4833 159° South 129 148 7,600 1,140 Climbing Denver TRACON
11:53AM 39.0292 -108.4789 171° South 126 145 8,400 1,020 Climbing Denver Center
11:54AM 38.9972 -108.4642 160° South 124 143 9,400 1,020 Climbing Denver Center
11:55AM 38.9614 -108.4472 160° South 127 146 10,600 1,020 Climbing Denver Center
11:56AM 38.9433 -108.4083 121° Southeast 133 153 11,600 960 Climbing Denver Center
11:57AM 38.9261 -108.3600 115° Southeast 137 158 12,600 960 Climbing Denver Center
11:58AM 38.9117 -108.3161 113° Southeast 136 157 13,600 960 Climbing Denver Center
11:59AM 38.8942 -108.2658 114° Southeast 142 163 14,600 840 Climbing Denver Center
12:00PM 38.8781 -108.2183 114° Southeast 145 167 15,400 720 Climbing Denver Center
12:01PM 38.8589 -108.1664 115° Southeast 149 171 16,200 720 Climbing Denver Center
12:02PM 38.8411 -108.1161 114° Southeast 154 177 16,900 660 Climbing Denver Center
12:03PM 38.8228 -108.0672 116° Southeast 153 176 17,600 480 Climbing Denver Center
12:04PM 38.8067 -108.0147 111° Southeast 158 182 18,000 480 Climbing Denver Center
12:05PM 38.7881 -107.9625 115° Southeast 162 186 18,600 420 Climbing Denver Center
12:06PM 38.7667 -107.9092 117° Southeast 169 194 18,900 120 Climbing Denver Center
12:07PM 38.7436 -107.8342 111° Southeast 185 213 18,900  Level Denver Center
12:08PM 38.7208 -107.7678 114° Southeast 199 229 19,000  Climbing Denver Center
12:09PM 38.6967 -107.7014 115° Southeast 205 236 19,000 -60 Level Denver Center
12:10PM 38.6711 -107.6311 115° Southeast 213 245 18,900 -60 Descending Denver Center
12:11PM 38.6458 -107.5600 114° Southeast 218 251 18,900  Level Denver Center
12:12PM 38.6156 -107.4794 116° Southeast 218 251 19,000  Climbing Denver Center
12:13PM 38.5903 -107.4122 116° Southeast 213 245 19,000  Level Denver Center
12:14PM 38.5625 -107.3447 118° Southeast 214 246 19,000 -60 Level Denver Center
12:15PM 38.5364 -107.2764 116° Southeast 214 246 18,900 -60 Descending Denver Center
12:16PM 38.5081 -107.2083 118° Southeast 217 250 18,900  Level Denver Center
12:17PM 38.4811 -107.1389 116° Southeast 218 251 18,900 60 Level Denver Center
12:18PM 38.4492 -107.0556 116° Southeast 219 252 19,100  Climbing Denver Center
12:20PM 38.4508 -106.9844 88° East 212 244 18,900  Descending Denver Center
12:21PM 38.4714 -106.9167 69° East 204 235 19,100  Climbing Denver Center
12:22PM 38.4928 -106.8483 68° East 208 239 19,000  Descending Denver Center
12:23PM 38.5172 -106.7836 64° Northeast 204 235 19,100  Climbing Denver Center
12:24PM 38.5433 -106.7175 63° Northeast 207 238 19,000 -60 Descending Denver Center
12:25PM 38.5722 -106.6375 65° Northeast 207 238 19,000  Level Denver Center
12:26PM 38.5967 -106.5700 65° Northeast 208 239 19,000  Level Denver Center
12:27PM 38.6206 -106.5047 65° Northeast 205 236 19,000 -60 Level Denver Center
12:28PM 38.6461 -106.4383 64° Northeast 207 238 18,900  Descending Denver Center
12:29PM 38.6681 -106.3714 67° East 205 236 19,000  Climbing Denver Center
12:30PM 38.6889 -106.3036 68° East 205 236 18,900  Descending Denver Center
12:31PM 38.7144 -106.2236 68° East 202 232 19,100 60 Climbing Denver Center
12:32PM 38.7361 -106.1564 68° East 204 235 19,100  Level Denver Center
12:33PM 38.7578 -106.0861 68° East 206 237 19,100 -60 Level Denver Center
12:34PM 38.7822 -106.0244 63° Northeast 205 236 19,000 -60 Descending Denver Center
12:35PM 38.8247 -105.9667 47° Northeast 199 229 19,000  Level Denver Center
12:36PM 38.8589 -105.9164 49° Northeast 196 226 19,000 -60 Level Denver Center
12:37PM 38.8989 -105.8569 49° Northeast 196 226 18,900 -300 Descending Denver Center
12:38PM 38.9308 -105.8022 53° Northeast 201 231 18,400 -540 Descending Denver Center
12:39PM 38.9722 -105.7350 52° Northeast 212 244 17,800 -540 Descending Denver Center
12:40PM 39.0089 -105.6794 50° Northeast 213 245 17,300 -780 Descending Denver Center
12:41PM 39.0456 -105.6219 51° Northeast 216 249 16,200 -1,140 Descending Denver Center
12:42PM 39.0939 -105.5472 50° Northeast 233 268 15,000 -600 Descending Denver Center
12:43PM 39.1303 -105.4919 50° Northeast 221 254 15,000 -60 Level Denver Center
12:44PM 39.1706 -105.4292 50° Northeast 202 232 14,900  Descending Denver Center
12:45PM 39.2044 -105.3775 50° Northeast 191 220 15,100  Climbing Denver Center
12:46PM 39.2494 -105.3497 26° Northeast 180 207 15,000 -420 Descending Denver Center
12:47PM 39.3069 -105.3303 15° North 196 226 14,300 -540 Descending Denver Center
12:48PM 39.3625 -105.3122 14° North 204 235 14,000 -180 Descending Denver Center
12:50PM 39.3944 -105.2628 50° Northeast 201 231 14,000 -360 Level Denver Center
12:51PM 39.3847 -105.1894 100° East 209 241 13,300 -540 Descending Denver Center
12:52PM 39.3742 -105.1050 99° East 218 251 13,000 -180 Descending Denver Center
12:53PM 39.3656 -105.0317 99° East 210 242 13,000  Level Denver Center
12:54PM 39.3567 -104.9553 99° East 201 231 13,100  Climbing Denver Center
12:55PM 39.3472 -104.8842 100° East 202 232 13,000  Descending Denver Center
12:56PM 39.3369 -104.8081 100° East 202 232 13,100  Climbing Denver Center
12:57PM 39.3278 -104.7367 99° East 202 232 13,000 -480 Descending Denver Center
12:58PM 39.3556 -104.6797 58° Northeast 212 244 12,200 -540 Descending Denver Center
12:59PM 39.4114 -104.6631 13° North 192 221 12,000 -120 Descending Denver Center
01:00PM 39.4603 -104.6597 North 179 206 12,000  Level Denver Center
01:01PM 39.5139 -104.6628 357° North 179 206 12,000  Level Denver Center
01:02PM 39.5636 -104.6614 North 179 206 12,100  Climbing Denver Center
01:03PM 39.6178 -104.6608 360° North 180 207 12,000 -240 Descending Denver Center
01:04PM 39.6675 -104.6608 360° North 180 207 11,700 -1,320 Descending Denver Center
01:05PM 39.7150 -104.6611 360° North 163 188 9,300 -2,100 Descending Denver Center
01:06PM 39.7608 -104.6608 360° North 164 189 7,400 -1,560 Descending Denver Center
01:07PM 39.8067 -104.6611 360° North 155 178 6,100 -960 Descending Denver Center
01:08PM 39.8436 -104.6603 North 139 160 5,500 -600 Descending Denver Center
01:10PM 39.8500 -104.6667 347° North  Level FlightAware Approximate
01:17PM 39.8617 -104.6732 347° North  Level Estimated
01:18PM 39.8617 -104.6732 347° North  Level Estimated
01:19PM 39.8617 -104.6732 347° North  Level Estimated